sensor_id;sensor_type;location;lat;lon;timestamp;temperature;humidity
17495;DHT22;8864;51.970;4.614;2023-04-03T00:02:02;16.90;63.00
17495;DHT22;8864;51.970;4.614;2023-04-03T00:04:29;16.90;63.00
17495;DHT22;8864;51.970;4.614;2023-04-03T00:06:56;16.80;62.90
17495;DHT22;8864;51.970;4.614;2023-04-03T00:09:24;16.80;62.90
17495;DHT22;8864;51.970;4.614;2023-04-03T00:11:51;16.80;62.90
17495;DHT22;8864;51.970;4.614;2023-04-03T00:14:18;16.90;63.00
17495;DHT22;8864;51.970;4.614;2023-04-03T00:16:45;16.90;62.90
17495;DHT22;8864;51.970;4.614;2023-04-03T00:19:12;16.80;62.80
17495;DHT22;8864;51.970;4.614;2023-04-03T00:21:39;16.90;62.80
17495;DHT22;8864;51.970;4.614;2023-04-03T00:24:06;16.80;62.70
17495;DHT22;8864;51.970;4.614;2023-04-03T00:26:35;16.90;62.70
17495;DHT22;8864;51.970;4.614;2023-04-03T00:29:02;16.90;62.70
17495;DHT22;8864;51.970;4.614;2023-04-03T00:31:29;16.80;62.70
17495;DHT22;8864;51.970;4.614;2023-04-03T00:33:55;16.80;62.70
17495;DHT22;8864;51.970;4.614;2023-04-03T00:36:22;16.80;62.60
17495;DHT22;8864;51.970;4.614;2023-04-03T00:38:49;16.80;62.50
17495;DHT22;8864;51.970;4.614;2023-04-03T00:41:16;16.80;62.50
17495;DHT22;8864;51.970;4.614;2023-04-03T00:43:44;16.80;62.40
17495;DHT22;8864;51.970;4.614;2023-04-03T00:46:11;16.80;62.40
17495;DHT22;8864;51.970;4.614;2023-04-03T00:48:42;16.80;62.30
17495;DHT22;8864;51.970;4.614;2023-04-03T00:51:13;16.80;62.30
17495;DHT22;8864;51.970;4.614;2023-04-03T00:53:46;16.80;62.30
17495;DHT22;8864;51.970;4.614;2023-04-03T00:56:15;16.80;62.30
17495;DHT22;8864;51.970;4.614;2023-04-03T00:58:48;16.80;62.30
17495;DHT22;8864;51.970;4.614;2023-04-03T01:01:19;16.80;62.30
17495;DHT22;8864;51.970;4.614;2023-04-03T01:03:47;16.80;62.30
17495;DHT22;8864;51.970;4.614;2023-04-03T01:06:17;16.80;62.70
17495;DHT22;8864;51.970;4.614;2023-04-03T01:08:45;16.80;62.30
17495;DHT22;8864;51.970;4.614;2023-04-03T01:11:14;16.80;62.20
17495;DHT22;8864;51.970;4.614;2023-04-03T01:13:41;16.80;62.10
17495;DHT22;8864;51.970;4.614;2023-04-03T01:16:09;16.80;62.00
17495;DHT22;8864;51.970;4.614;2023-04-03T01:18:38;16.80;62.00
17495;DHT22;8864;51.970;4.614;2023-04-03T01:24:22;16.70;61.90
17495;DHT22;8864;51.970;4.614;2023-04-03T01:26:52;16.80;61.90
17495;DHT22;8864;51.970;4.614;2023-04-03T01:29:18;16.70;61.80
17495;DHT22;8864;51.970;4.614;2023-04-03T01:32:03;16.70;61.80
17495;DHT22;8864;51.970;4.614;2023-04-03T01:34:30;16.70;61.70
17495;DHT22;8864;51.970;4.614;2023-04-03T01:36:57;16.70;61.70
17495;DHT22;8864;51.970;4.614;2023-04-03T01:39:24;16.70;61.70
17495;DHT22;8864;51.970;4.614;2023-04-03T01:41:52;16.70;61.60
17495;DHT22;8864;51.970;4.614;2023-04-03T01:44:19;16.70;61.60
17495;DHT22;8864;51.970;4.614;2023-04-03T01:46:46;16.70;61.60
17495;DHT22;8864;51.970;4.614;2023-04-03T01:49:14;16.70;61.60
17495;DHT22;8864;51.970;4.614;2023-04-03T01:51:41;16.70;61.60
17495;DHT22;8864;51.970;4.614;2023-04-03T01:54:08;16.70;61.50
17495;DHT22;8864;51.970;4.614;2023-04-03T01:56:35;16.70;61.50
17495;DHT22;8864;51.970;4.614;2023-04-03T01:59:01;16.70;61.60
17495;DHT22;8864;51.970;4.614;2023-04-03T02:01:28;16.70;61.50
17495;DHT22;8864;51.970;4.614;2023-04-03T02:03:55;16.70;61.40
17495;DHT22;8864;51.970;4.614;2023-04-03T02:06:24;16.70;61.40
17495;DHT22;8864;51.970;4.614;2023-04-03T02:08:51;16.70;61.40
17495;DHT22;8864;51.970;4.614;2023-04-03T02:11:18;16.70;61.40
17495;DHT22;8864;51.970;4.614;2023-04-03T02:13:45;16.60;61.30
17495;DHT22;8864;51.970;4.614;2023-04-03T02:16:12;16.70;61.40
17495;DHT22;8864;51.970;4.614;2023-04-03T02:18:39;16.70;61.30
17495;DHT22;8864;51.970;4.614;2023-04-03T02:21:06;16.60;61.30
17495;DHT22;8864;51.970;4.614;2023-04-03T02:23:34;16.60;61.20
17495;DHT22;8864;51.970;4.614;2023-04-03T02:26:04;16.70;61.30
17495;DHT22;8864;51.970;4.614;2023-04-03T02:28:32;16.60;61.20
17495;DHT22;8864;51.970;4.614;2023-04-03T02:30:59;16.60;61.20
17495;DHT22;8864;51.970;4.614;2023-04-03T02:33:26;16.60;61.10
17495;DHT22;8864;51.970;4.614;2023-04-03T02:35:54;16.60;61.10
17495;DHT22;8864;51.970;4.614;2023-04-03T02:38:21;16.60;61.10
17495;DHT22;8864;51.970;4.614;2023-04-03T02:40:49;16.60;61.10
17495;DHT22;8864;51.970;4.614;2023-04-03T02:43:18;16.60;61.10
17495;DHT22;8864;51.970;4.614;2023-04-03T02:45:44;16.60;61.10
17495;DHT22;8864;51.970;4.614;2023-04-03T02:48:11;16.60;61.10
17495;DHT22;8864;51.970;4.614;2023-04-03T02:50:40;16.60;61.70
17495;DHT22;8864;51.970;4.614;2023-04-03T02:53:07;16.60;60.90
17495;DHT22;8864;51.970;4.614;2023-04-03T02:55:34;16.60;60.90
17495;DHT22;8864;51.970;4.614;2023-04-03T02:58:02;16.60;60.90
17495;DHT22;8864;51.970;4.614;2023-04-03T03:00:29;16.60;60.80
17495;DHT22;8864;51.970;4.614;2023-04-03T03:02:56;16.60;60.80
17495;DHT22;8864;51.970;4.614;2023-04-03T03:05:23;16.60;60.70
17495;DHT22;8864;51.970;4.614;2023-04-03T03:07:50;16.50;60.70
17495;DHT22;8864;51.970;4.614;2023-04-03T03:10:17;16.50;60.60
17495;DHT22;8864;51.970;4.614;2023-04-03T03:12:44;16.60;60.70
17495;DHT22;8864;51.970;4.614;2023-04-03T03:15:12;16.60;60.70
17495;DHT22;8864;51.970;4.614;2023-04-03T03:17:39;16.50;60.60
17495;DHT22;8864;51.970;4.614;2023-04-03T03:20:07;16.50;60.60
17495;DHT22;8864;51.970;4.614;2023-04-03T03:22:35;16.50;60.50
17495;DHT22;8864;51.970;4.614;2023-04-03T03:25:02;16.50;60.50
17495;DHT22;8864;51.970;4.614;2023-04-03T03:27:29;16.50;60.50
17495;DHT22;8864;51.970;4.614;2023-04-03T03:29:56;16.50;60.50
17495;DHT22;8864;51.970;4.614;2023-04-03T03:32:24;16.50;60.50
17495;DHT22;8864;51.970;4.614;2023-04-03T03:34:51;16.50;60.50
17495;DHT22;8864;51.970;4.614;2023-04-03T03:37:18;16.50;60.30
17495;DHT22;8864;51.970;4.614;2023-04-03T03:39:45;16.50;60.30
17495;DHT22;8864;51.970;4.614;2023-04-03T03:42:12;16.50;60.30
17495;DHT22;8864;51.970;4.614;2023-04-03T03:44:39;16.50;60.30
17495;DHT22;8864;51.970;4.614;2023-04-03T03:47:06;16.50;60.30
17495;DHT22;8864;51.970;4.614;2023-04-03T03:49:37;16.40;60.20
17495;DHT22;8864;51.970;4.614;2023-04-03T03:52:04;16.50;60.30
17495;DHT22;8864;51.970;4.614;2023-04-03T03:54:31;16.50;61.10
17495;DHT22;8864;51.970;4.614;2023-04-03T03:56:58;16.40;60.20
17495;DHT22;8864;51.970;4.614;2023-04-03T03:59:25;16.50;60.20
17495;DHT22;8864;51.970;4.614;2023-04-03T04:01:52;16.40;60.20
17495;DHT22;8864;51.970;4.614;2023-04-03T04:04:19;16.40;60.10
17495;DHT22;8864;51.970;4.614;2023-04-03T04:06:47;16.40;60.10
17495;DHT22;8864;51.970;4.614;2023-04-03T04:09:14;16.40;60.20
17495;DHT22;8864;51.970;4.614;2023-04-03T04:11:41;16.40;60.20
17495;DHT22;8864;51.970;4.614;2023-04-03T04:14:09;16.40;60.30
17495;DHT22;8864;51.970;4.614;2023-04-03T04:16:38;16.40;60.30
17495;DHT22;8864;51.970;4.614;2023-04-03T04:19:05;16.40;60.50
17495;DHT22;8864;51.970;4.614;2023-04-03T04:21:31;16.40;60.30
17495;DHT22;8864;51.970;4.614;2023-04-03T04:24:00;16.40;60.40
17495;DHT22;8864;51.970;4.614;2023-04-03T04:26:27;16.40;60.50
17495;DHT22;8864;51.970;4.614;2023-04-03T04:28:54;16.40;60.40
17495;DHT22;8864;51.970;4.614;2023-04-03T04:31:21;16.40;60.40
17495;DHT22;8864;51.970;4.614;2023-04-03T04:33:47;16.40;60.30
17495;DHT22;8864;51.970;4.614;2023-04-03T04:36:14;16.40;60.30
17495;DHT22;8864;51.970;4.614;2023-04-03T04:38:41;16.40;60.20
17495;DHT22;8864;51.970;4.614;2023-04-03T04:41:09;16.40;60.20
17495;DHT22;8864;51.970;4.614;2023-04-03T04:43:37;16.40;60.00
17495;DHT22;8864;51.970;4.614;2023-04-03T04:46:05;16.40;60.00
17495;DHT22;8864;51.970;4.614;2023-04-03T04:48:34;16.40;60.00
17495;DHT22;8864;51.970;4.614;2023-04-03T04:51:01;16.40;60.00
17495;DHT22;8864;51.970;4.614;2023-04-03T04:53:28;16.40;59.90
17495;DHT22;8864;51.970;4.614;2023-04-03T04:55:55;16.40;59.90
17495;DHT22;8864;51.970;4.614;2023-04-03T04:58:24;16.40;59.90
17495;DHT22;8864;51.970;4.614;2023-04-03T05:00:58;16.40;59.90
17495;DHT22;8864;51.970;4.614;2023-04-03T05:03:25;16.40;60.60
17495;DHT22;8864;51.970;4.614;2023-04-03T05:05:52;16.40;59.80
17495;DHT22;8864;51.970;4.614;2023-04-03T05:08:19;16.40;59.80
17495;DHT22;8864;51.970;4.614;2023-04-03T05:10:46;16.40;59.80
17495;DHT22;8864;51.970;4.614;2023-04-03T05:13:13;16.30;59.70
17495;DHT22;8864;51.970;4.614;2023-04-03T05:15:41;16.40;59.80
17495;DHT22;8864;51.970;4.614;2023-04-03T05:18:08;16.40;59.80
17495;DHT22;8864;51.970;4.614;2023-04-03T05:20:35;16.40;59.80
17495;DHT22;8864;51.970;4.614;2023-04-03T05:23:02;16.40;59.80
17495;DHT22;8864;51.970;4.614;2023-04-03T05:25:29;16.40;59.70
17495;DHT22;8864;51.970;4.614;2023-04-03T05:27:56;16.40;59.80
17495;DHT22;8864;51.970;4.614;2023-04-03T05:30:24;16.40;59.80
17495;DHT22;8864;51.970;4.614;2023-04-03T05:32:52;16.40;59.70
17495;DHT22;8864;51.970;4.614;2023-04-03T05:35:19;16.40;59.70
17495;DHT22;8864;51.970;4.614;2023-04-03T05:37:46;16.40;59.70
17495;DHT22;8864;51.970;4.614;2023-04-03T05:40:13;16.40;59.70
17495;DHT22;8864;51.970;4.614;2023-04-03T05:42:40;16.40;59.70
17495;DHT22;8864;51.970;4.614;2023-04-03T05:45:07;16.40;59.70
17495;DHT22;8864;51.970;4.614;2023-04-03T05:47:34;16.40;59.70
17495;DHT22;8864;51.970;4.614;2023-04-03T05:50:03;16.40;59.70
17495;DHT22;8864;51.970;4.614;2023-04-03T05:52:33;16.40;59.70
17495;DHT22;8864;51.970;4.614;2023-04-03T05:55:02;16.40;59.70
17495;DHT22;8864;51.970;4.614;2023-04-03T05:57:29;16.40;59.70
17495;DHT22;8864;51.970;4.614;2023-04-03T05:59:56;16.40;59.70
17495;DHT22;8864;51.970;4.614;2023-04-03T06:02:24;16.40;59.70
17495;DHT22;8864;51.970;4.614;2023-04-03T06:04:51;16.40;59.80
17495;DHT22;8864;51.970;4.614;2023-04-03T06:07:22;16.40;59.80
17495;DHT22;8864;51.970;4.614;2023-04-03T06:09:50;16.40;59.90
17495;DHT22;8864;51.970;4.614;2023-04-03T06:12:18;16.40;59.80
17495;DHT22;8864;51.970;4.614;2023-04-03T06:14:45;16.40;59.70
17495;DHT22;8864;51.970;4.614;2023-04-03T06:17:13;16.40;59.70
17495;DHT22;8864;51.970;4.614;2023-04-03T06:19:40;16.40;59.80
17495;DHT22;8864;51.970;4.614;2023-04-03T06:22:08;16.40;59.80
17495;DHT22;8864;51.970;4.614;2023-04-03T06:24:36;16.40;59.80
17495;DHT22;8864;51.970;4.614;2023-04-03T06:27:03;16.40;60.00
17495;DHT22;8864;51.970;4.614;2023-04-03T06:29:30;16.40;60.00
17495;DHT22;8864;51.970;4.614;2023-04-03T06:31:58;16.40;60.10
17495;DHT22;8864;51.970;4.614;2023-04-03T06:34:25;16.40;60.10
17495;DHT22;8864;51.970;4.614;2023-04-03T06:36:53;16.40;60.00
17495;DHT22;8864;51.970;4.614;2023-04-03T06:39:21;16.40;60.00
17495;DHT22;8864;51.970;4.614;2023-04-03T06:41:50;16.40;60.00
17495;DHT22;8864;51.970;4.614;2023-04-03T06:44:17;16.40;59.90
17495;DHT22;8864;51.970;4.614;2023-04-03T06:46:44;16.40;59.90
17495;DHT22;8864;51.970;4.614;2023-04-03T06:49:12;16.40;59.80
17495;DHT22;8864;51.970;4.614;2023-04-03T06:51:39;16.40;59.80
17495;DHT22;8864;51.970;4.614;2023-04-03T06:54:06;16.40;59.80
17495;DHT22;8864;51.970;4.614;2023-04-03T06:56:34;16.40;59.80
17495;DHT22;8864;51.970;4.614;2023-04-03T06:59:02;16.50;60.00
17495;DHT22;8864;51.970;4.614;2023-04-03T07:01:29;16.50;60.00
17495;DHT22;8864;51.970;4.614;2023-04-03T07:03:59;16.50;60.00
17495;DHT22;8864;51.970;4.614;2023-04-03T07:06:27;16.50;60.00
17495;DHT22;8864;51.970;4.614;2023-04-03T07:08:55;16.50;60.20
17495;DHT22;8864;51.970;4.614;2023-04-03T07:11:23;16.50;60.20
17495;DHT22;8864;51.970;4.614;2023-04-03T07:13:55;16.50;60.30
17495;DHT22;8864;51.970;4.614;2023-04-03T07:16:29;16.50;60.60
17495;DHT22;8864;51.970;4.614;2023-04-03T07:19:09;16.50;60.70
17495;DHT22;8864;51.970;4.614;2023-04-03T07:21:46;16.50;61.10
17495;DHT22;8864;51.970;4.614;2023-04-03T07:24:13;16.50;61.10
17495;DHT22;8864;51.970;4.614;2023-04-03T07:26:40;16.50;61.30
17495;DHT22;8864;51.970;4.614;2023-04-03T07:29:07;16.50;61.40
17495;DHT22;8864;51.970;4.614;2023-04-03T07:31:36;16.50;61.40
17495;DHT22;8864;51.970;4.614;2023-04-03T07:34:04;16.60;62.10
17495;DHT22;8864;51.970;4.614;2023-04-03T07:36:31;16.60;62.10
17495;DHT22;8864;51.970;4.614;2023-04-03T07:38:59;16.60;62.00
17495;DHT22;8864;51.970;4.614;2023-04-03T07:41:26;16.60;61.90
17495;DHT22;8864;51.970;4.614;2023-04-03T07:43:54;16.60;61.90
17495;DHT22;8864;51.970;4.614;2023-04-03T07:46:22;16.60;61.90
17495;DHT22;8864;51.970;4.614;2023-04-03T07:48:50;16.60;61.80
17495;DHT22;8864;51.970;4.614;2023-04-03T07:51:17;16.60;61.70
17495;DHT22;8864;51.970;4.614;2023-04-03T07:53:45;16.60;61.60
17495;DHT22;8864;51.970;4.614;2023-04-03T07:56:12;16.60;61.40
17495;DHT22;8864;51.970;4.614;2023-04-03T07:58:39;16.60;61.40
17495;DHT22;8864;51.970;4.614;2023-04-03T08:01:06;16.60;61.40
17495;DHT22;8864;51.970;4.614;2023-04-03T08:03:33;16.60;61.10
17495;DHT22;8864;51.970;4.614;2023-04-03T08:06:05;16.60;61.00
17495;DHT22;8864;51.970;4.614;2023-04-03T08:08:32;16.60;60.70
17495;DHT22;8864;51.970;4.614;2023-04-03T08:11:00;16.60;60.40
17495;DHT22;8864;51.970;4.614;2023-04-03T08:13:29;16.60;60.30
17495;DHT22;8864;51.970;4.614;2023-04-03T08:15:56;16.60;60.20
17495;DHT22;8864;51.970;4.614;2023-04-03T08:18:24;16.60;60.30
17495;DHT22;8864;51.970;4.614;2023-04-03T08:20:52;16.50;60.30
17495;DHT22;8864;51.970;4.614;2023-04-03T08:23:20;16.60;60.30
17495;DHT22;8864;51.970;4.614;2023-04-03T08:25:47;16.60;60.20
17495;DHT22;8864;51.970;4.614;2023-04-03T08:28:14;16.60;60.10
17495;DHT22;8864;51.970;4.614;2023-04-03T08:30:42;16.60;60.00
17495;DHT22;8864;51.970;4.614;2023-04-03T08:33:09;16.60;59.90
17495;DHT22;8864;51.970;4.614;2023-04-03T08:35:39;16.60;59.90
17495;DHT22;8864;51.970;4.614;2023-04-03T08:38:07;16.60;59.90
17495;DHT22;8864;51.970;4.614;2023-04-03T08:40:35;16.60;59.80
17495;DHT22;8864;51.970;4.614;2023-04-03T08:43:20;16.60;59.80
17495;DHT22;8864;51.970;4.614;2023-04-03T08:45:53;16.60;59.50
17495;DHT22;8864;51.970;4.614;2023-04-03T08:48:25;16.60;59.50
17495;DHT22;8864;51.970;4.614;2023-04-03T08:50:57;16.60;59.40
17495;DHT22;8864;51.970;4.614;2023-04-03T08:53:26;16.60;59.30
17495;DHT22;8864;51.970;4.614;2023-04-03T08:56:00;16.60;59.30
17495;DHT22;8864;51.970;4.614;2023-04-03T08:58:30;16.60;59.40
17495;DHT22;8864;51.970;4.614;2023-04-03T09:01:02;16.60;59.50
17495;DHT22;8864;51.970;4.614;2023-04-03T09:03:31;16.60;59.50
17495;DHT22;8864;51.970;4.614;2023-04-03T09:06:02;16.60;59.60
17495;DHT22;8864;51.970;4.614;2023-04-03T09:08:31;16.60;59.70
17495;DHT22;8864;51.970;4.614;2023-04-03T09:11:08;16.60;59.90
17495;DHT22;8864;51.970;4.614;2023-04-03T09:13:43;16.60;59.80
17495;DHT22;8864;51.970;4.614;2023-04-03T09:16:21;16.60;59.80
17495;DHT22;8864;51.970;4.614;2023-04-03T09:18:56;16.60;59.60
17495;DHT22;8864;51.970;4.614;2023-04-03T09:21:27;16.70;59.60
17495;DHT22;8864;51.970;4.614;2023-04-03T09:23:59;16.60;59.60
17495;DHT22;8864;51.970;4.614;2023-04-03T09:26:33;16.60;59.70
17495;DHT22;8864;51.970;4.614;2023-04-03T09:29:05;16.70;59.80
17495;DHT22;8864;51.970;4.614;2023-04-03T09:31:37;16.60;59.70
17495;DHT22;8864;51.970;4.614;2023-04-03T09:34:09;16.60;59.70
17495;DHT22;8864;51.970;4.614;2023-04-03T09:36:41;16.60;59.60
17495;DHT22;8864;51.970;4.614;2023-04-03T09:39:12;16.60;59.40
17495;DHT22;8864;51.970;4.614;2023-04-03T09:41:42;16.60;59.20
17495;DHT22;8864;51.970;4.614;2023-04-03T09:44:23;16.70;59.10
17495;DHT22;8864;51.970;4.614;2023-04-03T09:46:49;16.60;59.10
17495;DHT22;8864;51.970;4.614;2023-04-03T09:49:17;16.60;59.10
17495;DHT22;8864;51.970;4.614;2023-04-03T09:51:45;16.60;59.10
17495;DHT22;8864;51.970;4.614;2023-04-03T09:54:35;16.60;58.90
17495;DHT22;8864;51.970;4.614;2023-04-03T09:57:10;16.70;58.90
17495;DHT22;8864;51.970;4.614;2023-04-03T09:59:44;16.60;58.80
17495;DHT22;8864;51.970;4.614;2023-04-03T10:02:41;16.70;58.70
17495;DHT22;8864;51.970;4.614;2023-04-03T10:05:27;16.70;58.40
17495;DHT22;8864;51.970;4.614;2023-04-03T10:08:14;16.60;58.50
17495;DHT22;8864;51.970;4.614;2023-04-03T10:10:46;16.70;58.80
17495;DHT22;8864;51.970;4.614;2023-04-03T10:13:16;16.70;58.80
17495;DHT22;8864;51.970;4.614;2023-04-03T10:15:48;16.60;58.70
17495;DHT22;8864;51.970;4.614;2023-04-03T10:18:30;16.70;58.60
17495;DHT22;8864;51.970;4.614;2023-04-03T10:21:02;16.70;58.70
17495;DHT22;8864;51.970;4.614;2023-04-03T10:23:38;16.70;58.70
17495;DHT22;8864;51.970;4.614;2023-04-03T10:26:16;16.60;58.60
17495;DHT22;8864;51.970;4.614;2023-04-03T10:28:50;16.70;58.50
17495;DHT22;8864;51.970;4.614;2023-04-03T10:31:25;16.70;58.40
17495;DHT22;8864;51.970;4.614;2023-04-03T10:34:01;16.60;58.20
17495;DHT22;8864;51.970;4.614;2023-04-03T10:36:37;16.60;58.30
17495;DHT22;8864;51.970;4.614;2023-04-03T10:39:16;16.70;58.30
17495;DHT22;8864;51.970;4.614;2023-04-03T10:41:55;16.60;58.20
17495;DHT22;8864;51.970;4.614;2023-04-03T10:44:31;16.60;58.50
17495;DHT22;8864;51.970;4.614;2023-04-03T10:47:08;16.70;58.60
17495;DHT22;8864;51.970;4.614;2023-04-03T10:49:45;16.70;58.70
17495;DHT22;8864;51.970;4.614;2023-04-03T10:52:21;16.70;58.90
17495;DHT22;8864;51.970;4.614;2023-04-03T10:54:56;16.70;59.10
17495;DHT22;8864;51.970;4.614;2023-04-03T10:57:28;16.70;59.60
17495;DHT22;8864;51.970;4.614;2023-04-03T11:00:00;16.70;60.00
17495;DHT22;8864;51.970;4.614;2023-04-03T11:02:31;16.70;60.10
17495;DHT22;8864;51.970;4.614;2023-04-03T11:05:02;16.70;59.80
17495;DHT22;8864;51.970;4.614;2023-04-03T11:07:34;16.70;59.40
17495;DHT22;8864;51.970;4.614;2023-04-03T11:10:09;16.70;59.30
17495;DHT22;8864;51.970;4.614;2023-04-03T11:12:42;16.70;59.40
17495;DHT22;8864;51.970;4.614;2023-04-03T11:15:15;16.70;60.50
17495;DHT22;8864;51.970;4.614;2023-04-03T11:17:46;16.80;60.60
17495;DHT22;8864;51.970;4.614;2023-04-03T11:20:18;16.70;60.60
17495;DHT22;8864;51.970;4.614;2023-04-03T11:22:50;16.80;59.90
17495;DHT22;8864;51.970;4.614;2023-04-03T11:25:20;16.80;60.00
17495;DHT22;8864;51.970;4.614;2023-04-03T11:27:56;16.80;58.20
17495;DHT22;8864;51.970;4.614;2023-04-03T11:30:28;16.80;56.80
17495;DHT22;8864;51.970;4.614;2023-04-03T11:33:20;16.80;55.80
17495;DHT22;8864;51.970;4.614;2023-04-03T11:35:51;16.90;55.50
17495;DHT22;8864;51.970;4.614;2023-04-03T11:38:24;16.90;55.30
17495;DHT22;8864;51.970;4.614;2023-04-03T11:40:54;16.90;54.90
17495;DHT22;8864;51.970;4.614;2023-04-03T11:43:25;16.90;54.80
17495;DHT22;8864;51.970;4.614;2023-04-03T11:45:58;16.90;55.10
17495;DHT22;8864;51.970;4.614;2023-04-03T11:48:49;16.90;55.10
17495;DHT22;8864;51.970;4.614;2023-04-03T11:51:38;16.90;55.10
17495;DHT22;8864;51.970;4.614;2023-04-03T11:57:44;16.90;55.60
17495;DHT22;8864;51.970;4.614;2023-04-03T12:00:46;17.00;56.00
17495;DHT22;8864;51.970;4.614;2023-04-03T12:06:47;17.00;55.90
17495;DHT22;8864;51.970;4.614;2023-04-03T12:09:28;17.00;56.00
17495;DHT22;8864;51.970;4.614;2023-04-03T12:11:58;17.00;55.80
17495;DHT22;8864;51.970;4.614;2023-04-03T12:14:27;17.00;55.90
17495;DHT22;8864;51.970;4.614;2023-04-03T12:16:56;17.00;55.80
17495;DHT22;8864;51.970;4.614;2023-04-03T12:19:43;17.00;55.50
17495;DHT22;8864;51.970;4.614;2023-04-03T12:22:13;17.00;55.30
17495;DHT22;8864;51.970;4.614;2023-04-03T12:24:42;17.00;55.80
17495;DHT22;8864;51.970;4.614;2023-04-03T12:27:28;17.00;55.50
17495;DHT22;8864;51.970;4.614;2023-04-03T12:30:07;17.00;55.40
17495;DHT22;8864;51.970;4.614;2023-04-03T12:33:20;17.10;55.30
17495;DHT22;8864;51.970;4.614;2023-04-03T12:35:57;17.10;55.40
17495;DHT22;8864;51.970;4.614;2023-04-03T12:38:58;17.10;55.40
17495;DHT22;8864;51.970;4.614;2023-04-03T12:41:36;17.10;55.60
17495;DHT22;8864;51.970;4.614;2023-04-03T12:47:02;17.10;55.50
17495;DHT22;8864;51.970;4.614;2023-04-03T12:49:37;17.20;56.30
17495;DHT22;8864;51.970;4.614;2023-04-03T12:52:18;17.10;55.30
17495;DHT22;8864;51.970;4.614;2023-04-03T12:54:46;17.10;55.30
17495;DHT22;8864;51.970;4.614;2023-04-03T12:57:18;17.20;55.50
17495;DHT22;8864;51.970;4.614;2023-04-03T12:59:46;17.20;55.30
17495;DHT22;8864;51.970;4.614;2023-04-03T13:02:21;17.20;55.10
17495;DHT22;8864;51.970;4.614;2023-04-03T13:04:50;17.20;55.10
17495;DHT22;8864;51.970;4.614;2023-04-03T13:07:24;17.20;55.20
17495;DHT22;8864;51.970;4.614;2023-04-03T13:10:01;17.20;55.10
17495;DHT22;8864;51.970;4.614;2023-04-03T13:12:28;17.20;55.20
17495;DHT22;8864;51.970;4.614;2023-04-03T13:14:58;17.20;55.10
17495;DHT22;8864;51.970;4.614;2023-04-03T13:17:26;17.30;55.30
17495;DHT22;8864;51.970;4.614;2023-04-03T13:19:54;17.30;55.20
17495;DHT22;8864;51.970;4.614;2023-04-03T13:22:29;17.30;55.10
17495;DHT22;8864;51.970;4.614;2023-04-03T13:25:00;17.30;54.80
17495;DHT22;8864;51.970;4.614;2023-04-03T13:27:32;17.30;55.10
17495;DHT22;8864;51.970;4.614;2023-04-03T13:30:01;17.40;55.70
17495;DHT22;8864;51.970;4.614;2023-04-03T13:32:32;17.40;56.30
17495;DHT22;8864;51.970;4.614;2023-04-03T13:35:00;17.40;56.80
17495;DHT22;8864;51.970;4.614;2023-04-03T13:37:33;17.40;57.40
17495;DHT22;8864;51.970;4.614;2023-04-03T13:40:12;17.40;57.60
17495;DHT22;8864;51.970;4.614;2023-04-03T13:42:40;17.50;57.80
17495;DHT22;8864;51.970;4.614;2023-04-03T13:45:20;17.50;57.80
17495;DHT22;8864;51.970;4.614;2023-04-03T13:47:51;17.50;58.40
17495;DHT22;8864;51.970;4.614;2023-04-03T13:50:20;17.50;58.40
17495;DHT22;8864;51.970;4.614;2023-04-03T13:52:52;17.60;58.40
17495;DHT22;8864;51.970;4.614;2023-04-03T13:55:24;17.60;59.00
17495;DHT22;8864;51.970;4.614;2023-04-03T13:57:55;17.60;58.40
17495;DHT22;8864;51.970;4.614;2023-04-03T14:00:36;17.60;58.50
17495;DHT22;8864;51.970;4.614;2023-04-03T14:03:12;17.70;58.70
17495;DHT22;8864;51.970;4.614;2023-04-03T14:05:40;17.70;58.40
17495;DHT22;8864;51.970;4.614;2023-04-03T14:08:08;17.70;58.40
17495;DHT22;8864;51.970;4.614;2023-04-03T14:10:35;17.70;58.30
17495;DHT22;8864;51.970;4.614;2023-04-03T14:13:03;17.80;58.40
17495;DHT22;8864;51.970;4.614;2023-04-03T14:15:30;17.80;58.40
17495;DHT22;8864;51.970;4.614;2023-04-03T14:17:58;17.80;58.20
17495;DHT22;8864;51.970;4.614;2023-04-03T14:20:26;17.90;58.20
17495;DHT22;8864;51.970;4.614;2023-04-03T14:22:53;17.90;58.10
17495;DHT22;8864;51.970;4.614;2023-04-03T14:25:22;17.90;58.20
17495;DHT22;8864;51.970;4.614;2023-04-03T14:27:51;18.00;58.20
17495;DHT22;8864;51.970;4.614;2023-04-03T14:30:23;18.00;58.00
17495;DHT22;8864;51.970;4.614;2023-04-03T14:32:50;18.00;57.80
17495;DHT22;8864;51.970;4.614;2023-04-03T14:35:18;18.00;57.80
17495;DHT22;8864;51.970;4.614;2023-04-03T14:37:46;18.10;57.60
17495;DHT22;8864;51.970;4.614;2023-04-03T14:40:18;18.10;57.70
17495;DHT22;8864;51.970;4.614;2023-04-03T14:42:46;18.20;57.60
17495;DHT22;8864;51.970;4.614;2023-04-03T14:45:15;18.20;57.50
17495;DHT22;8864;51.970;4.614;2023-04-03T14:47:46;18.20;57.40
17495;DHT22;8864;51.970;4.614;2023-04-03T14:50:15;18.20;57.20
17495;DHT22;8864;51.970;4.614;2023-04-03T14:52:44;18.30;57.00
17495;DHT22;8864;51.970;4.614;2023-04-03T14:55:14;18.30;57.00
17495;DHT22;8864;51.970;4.614;2023-04-03T14:57:41;18.30;57.10
17495;DHT22;8864;51.970;4.614;2023-04-03T15:00:14;18.40;56.90
17495;DHT22;8864;51.970;4.614;2023-04-03T15:02:42;18.40;56.90
17495;DHT22;8864;51.970;4.614;2023-04-03T15:05:11;18.40;56.90
17495;DHT22;8864;51.970;4.614;2023-04-03T15:07:40;18.50;56.90
17495;DHT22;8864;51.970;4.614;2023-04-03T15:10:16;18.50;56.90
17495;DHT22;8864;51.970;4.614;2023-04-03T15:12:44;18.50;56.80
17495;DHT22;8864;51.970;4.614;2023-04-03T15:15:13;18.60;56.90
17495;DHT22;8864;51.970;4.614;2023-04-03T15:17:40;18.60;56.90
17495;DHT22;8864;51.970;4.614;2023-04-03T15:20:12;18.60;56.80
17495;DHT22;8864;51.970;4.614;2023-04-03T15:22:40;18.60;56.70
17495;DHT22;8864;51.970;4.614;2023-04-03T15:25:07;18.70;56.70
17495;DHT22;8864;51.970;4.614;2023-04-03T15:27:35;18.70;56.50
17495;DHT22;8864;51.970;4.614;2023-04-03T15:30:02;18.80;56.40
17495;DHT22;8864;51.970;4.614;2023-04-03T15:32:31;18.80;56.10
17495;DHT22;8864;51.970;4.614;2023-04-03T15:34:59;18.80;55.70
17495;DHT22;8864;51.970;4.614;2023-04-03T15:37:26;18.90;55.30
17495;DHT22;8864;51.970;4.614;2023-04-03T15:39:53;18.90;54.90
17495;DHT22;8864;51.970;4.614;2023-04-03T15:42:20;18.90;54.70
17495;DHT22;8864;51.970;4.614;2023-04-03T15:44:47;18.90;54.50
17495;DHT22;8864;51.970;4.614;2023-04-03T15:47:14;18.90;54.30
17495;DHT22;8864;51.970;4.614;2023-04-03T15:49:43;19.00;54.10
17495;DHT22;8864;51.970;4.614;2023-04-03T15:52:10;19.00;54.00
17495;DHT22;8864;51.970;4.614;2023-04-03T15:54:37;19.00;53.90
17495;DHT22;8864;51.970;4.614;2023-04-03T15:57:04;19.00;53.90
17495;DHT22;8864;51.970;4.614;2023-04-03T15:59:31;19.00;54.00
17495;DHT22;8864;51.970;4.614;2023-04-03T16:02:01;19.10;54.10
17495;DHT22;8864;51.970;4.614;2023-04-03T16:04:30;19.10;54.10
17495;DHT22;8864;51.970;4.614;2023-04-03T16:07:00;19.10;54.10
17495;DHT22;8864;51.970;4.614;2023-04-03T16:09:28;19.10;54.10
17495;DHT22;8864;51.970;4.614;2023-04-03T16:11:55;19.10;54.10
17495;DHT22;8864;51.970;4.614;2023-04-03T16:14:21;19.10;54.00
17495;DHT22;8864;51.970;4.614;2023-04-03T16:16:48;19.10;54.10